sensor_id;sensor_type;location;lat;lon;timestamp;P1;durP1;ratioP1;P2;durP2;ratioP2
15476;SDS011;7840;42.702;23.296;2022-12-18T00:01:53;10.53;;;7.70;;
15476;SDS011;7840;42.702;23.296;2022-12-18T00:04:25;9.80;;;7.80;;
15476;SDS011;7840;42.702;23.296;2022-12-18T00:06:55;9.00;;;7.50;;
15476;SDS011;7840;42.702;23.296;2022-12-18T00:09:22;8.93;;;8.03;;
15476;SDS011;7840;42.702;23.296;2022-12-18T00:11:53;9.37;;;8.47;;
15476;SDS011;7840;42.702;23.296;2022-12-18T00:14:22;10.97;;;9.10;;
15476;SDS011;7840;42.702;23.296;2022-12-18T00:16:50;8.97;;;7.83;;
15476;SDS011;7840;42.702;23.296;2022-12-18T00:19:18;8.57;;;7.60;;
15476;SDS011;7840;42.702;23.296;2022-12-18T00:21:46;9.90;;;8.23;;
15476;SDS011;7840;42.702;23.296;2022-12-18T00:24:15;9.77;;;8.77;;
15476;SDS011;7840;42.702;23.296;2022-12-18T00:26:47;10.63;;;9.07;;
15476;SDS011;7840;42.702;23.296;2022-12-18T00:29:14;13.67;;;9.03;;
15476;SDS011;7840;42.702;23.296;2022-12-18T00:31:42;10.20;;;9.07;;
15476;SDS011;7840;42.702;23.296;2022-12-18T00:34:10;11.80;;;8.80;;
15476;SDS011;7840;42.702;23.296;2022-12-18T00:36:39;10.77;;;8.93;;
15476;SDS011;7840;42.702;23.296;2022-12-18T00:39:07;11.63;;;9.30;;
15476;SDS011;7840;42.702;23.296;2022-12-18T00:41:37;10.40;;;8.40;;
15476;SDS011;7840;42.702;23.296;2022-12-18T00:44:22;9.23;;;7.53;;
15476;SDS011;7840;42.702;23.296;2022-12-18T00:46:50;7.63;;;6.83;;
15476;SDS011;7840;42.702;23.296;2022-12-18T00:49:18;8.37;;;7.07;;
15476;SDS011;7840;42.702;23.296;2022-12-18T00:51:46;9.73;;;8.40;;
15476;SDS011;7840;42.702;23.296;2022-12-18T00:54:26;8.73;;;7.23;;
15476;SDS011;7840;42.702;23.296;2022-12-18T00:56:57;9.63;;;8.63;;
15476;SDS011;7840;42.702;23.296;2022-12-18T00:59:25;8.67;;;7.77;;
15476;SDS011;7840;42.702;23.296;2022-12-18T01:01:55;10.13;;;8.23;;
15476;SDS011;7840;42.702;23.296;2022-12-18T01:04:23;9.33;;;8.40;;
15476;SDS011;7840;42.702;23.296;2022-12-18T01:06:50;10.43;;;8.53;;
15476;SDS011;7840;42.702;23.296;2022-12-18T01:09:18;9.07;;;8.17;;
15476;SDS011;7840;42.702;23.296;2022-12-18T01:11:45;10.30;;;9.30;;
15476;SDS011;7840;42.702;23.296;2022-12-18T01:14:17;10.17;;;8.87;;
15476;SDS011;7840;42.702;23.296;2022-12-18T01:16:45;10.27;;;9.23;;
15476;SDS011;7840;42.702;23.296;2022-12-18T01:19:12;12.17;;;9.47;;
15476;SDS011;7840;42.702;23.296;2022-12-18T01:21:40;10.97;;;9.57;;
15476;SDS011;7840;42.702;23.296;2022-12-18T01:24:10;13.00;;;10.03;;
15476;SDS011;7840;42.702;23.296;2022-12-18T01:26:39;12.03;;;10.13;;
15476;SDS011;7840;42.702;23.296;2022-12-18T01:29:06;12.20;;;10.77;;
15476;SDS011;7840;42.702;23.296;2022-12-18T01:31:36;13.40;;;10.27;;
15476;SDS011;7840;42.702;23.296;2022-12-18T01:34:03;11.70;;;10.57;;
15476;SDS011;7840;42.702;23.296;2022-12-18T01:36:35;13.30;;;9.73;;
15476;SDS011;7840;42.702;23.296;2022-12-18T01:39:20;13.70;;;11.40;;
15476;SDS011;7840;42.702;23.296;2022-12-18T01:41:48;13.33;;;10.37;;
15476;SDS011;7840;42.702;23.296;2022-12-18T01:44:53;11.93;;;10.73;;
15476;SDS011;7840;42.702;23.296;2022-12-18T01:51:07;11.20;;;9.70;;
15476;SDS011;7840;42.702;23.296;2022-12-18T01:53:47;10.97;;;9.20;;
15476;SDS011;7840;42.702;23.296;2022-12-18T01:56:30;11.00;;;9.30;;
15476;SDS011;7840;42.702;23.296;2022-12-18T01:58:59;10.90;;;9.40;;
15476;SDS011;7840;42.702;23.296;2022-12-18T02:01:38;11.63;;;9.93;;
15476;SDS011;7840;42.702;23.296;2022-12-18T02:04:29;14.40;;;10.70;;
15476;SDS011;7840;42.702;23.296;2022-12-18T02:07:03;14.97;;;10.13;;
15476;SDS011;7840;42.702;23.296;2022-12-18T02:09:38;10.73;;;9.57;;
15476;SDS011;7840;42.702;23.296;2022-12-18T02:12:13;11.10;;;10.00;;
15476;SDS011;7840;42.702;23.296;2022-12-18T02:14:47;9.77;;;8.77;;
15476;SDS011;7840;42.702;23.296;2022-12-18T02:17:22;10.33;;;8.43;;
15476;SDS011;7840;42.702;23.296;2022-12-18T02:20:06;9.07;;;8.13;;
15476;SDS011;7840;42.702;23.296;2022-12-18T02:22:44;9.90;;;6.97;;
15476;SDS011;7840;42.702;23.296;2022-12-18T02:25:25;9.63;;;8.10;;
15476;SDS011;7840;42.702;23.296;2022-12-18T02:28:09;11.10;;;8.57;;
15476;SDS011;7840;42.702;23.296;2022-12-18T02:33:12;9.33;;;8.30;;
15476;SDS011;7840;42.702;23.296;2022-12-18T02:35:41;9.47;;;8.20;;
15476;SDS011;7840;42.702;23.296;2022-12-18T02:38:11;11.93;;;10.10;;
15476;SDS011;7840;42.702;23.296;2022-12-18T02:40:40;10.73;;;9.20;;
15476;SDS011;7840;42.702;23.296;2022-12-18T02:43:14;10.23;;;8.47;;
15476;SDS011;7840;42.702;23.296;2022-12-18T02:45:52;10.57;;;9.00;;
15476;SDS011;7840;42.702;23.296;2022-12-18T02:48:28;10.87;;;9.20;;
15476;SDS011;7840;42.702;23.296;2022-12-18T02:50:59;10.30;;;9.30;;
15476;SDS011;7840;42.702;23.296;2022-12-18T02:53:36;10.17;;;8.40;;
15476;SDS011;7840;42.702;23.296;2022-12-18T02:56:11;10.77;;;9.67;;
15476;SDS011;7840;42.702;23.296;2022-12-18T02:58:51;10.70;;;9.60;;
15476;SDS011;7840;42.702;23.296;2022-12-18T03:01:24;10.50;;;9.40;;
15476;SDS011;7840;42.702;23.296;2022-12-18T03:04:01;12.07;;;10.90;;
15476;SDS011;7840;42.702;23.296;2022-12-18T03:06:35;12.97;;;10.13;;
15476;SDS011;7840;42.702;23.296;2022-12-18T03:09:07;9.40;;;8.23;;
15476;SDS011;7840;42.702;23.296;2022-12-18T03:11:39;10.60;;;8.50;;
15476;SDS011;7840;42.702;23.296;2022-12-18T03:14:57;13.73;;;10.00;;
15476;SDS011;7840;42.702;23.296;2022-12-18T03:17:44;13.10;;;9.37;;
15476;SDS011;7840;42.702;23.296;2022-12-18T03:20:18;12.23;;;9.07;;
15476;SDS011;7840;42.702;23.296;2022-12-18T03:22:49;10.43;;;8.93;;
15476;SDS011;7840;42.702;23.296;2022-12-18T03:25:22;9.67;;;8.67;;
15476;SDS011;7840;42.702;23.296;2022-12-18T03:27:53;10.87;;;8.73;;
15476;SDS011;7840;42.702;23.296;2022-12-18T03:30:25;11.13;;;8.50;;
15476;SDS011;7840;42.702;23.296;2022-12-18T03:32:56;11.03;;;8.93;;
15476;SDS011;7840;42.702;23.296;2022-12-18T03:35:33;10.77;;;8.97;;
15476;SDS011;7840;42.702;23.296;2022-12-18T03:38:04;10.33;;;8.10;;
15476;SDS011;7840;42.702;23.296;2022-12-18T03:40:35;9.27;;;8.03;;
15476;SDS011;7840;42.702;23.296;2022-12-18T03:43:10;11.40;;;8.60;;
15476;SDS011;7840;42.702;23.296;2022-12-18T03:45:48;9.87;;;8.07;;
15476;SDS011;7840;42.702;23.296;2022-12-18T03:48:21;9.43;;;8.43;;
15476;SDS011;7840;42.702;23.296;2022-12-18T03:50:56;10.33;;;8.33;;
15476;SDS011;7840;42.702;23.296;2022-12-18T03:53:29;10.27;;;8.13;;
15476;SDS011;7840;42.702;23.296;2022-12-18T03:56:06;9.97;;;8.40;;
15476;SDS011;7840;42.702;23.296;2022-12-18T03:58:36;9.33;;;8.47;;
15476;SDS011;7840;42.702;23.296;2022-12-18T04:01:10;10.80;;;8.73;;
15476;SDS011;7840;42.702;23.296;2022-12-18T04:03:41;10.00;;;8.37;;
15476;SDS011;7840;42.702;23.296;2022-12-18T04:06:11;11.10;;;9.40;;
15476;SDS011;7840;42.702;23.296;2022-12-18T04:08:40;12.33;;;9.10;;
15476;SDS011;7840;42.702;23.296;2022-12-18T04:11:08;11.63;;;9.43;;
15476;SDS011;7840;42.702;23.296;2022-12-18T04:13:36;14.33;;;11.03;;
15476;SDS011;7840;42.702;23.296;2022-12-18T04:16:05;14.33;;;10.87;;
15476;SDS011;7840;42.702;23.296;2022-12-18T04:18:35;12.80;;;9.77;;
15476;SDS011;7840;42.702;23.296;2022-12-18T04:21:03;11.33;;;9.67;;
15476;SDS011;7840;42.702;23.296;2022-12-18T04:23:31;15.67;;;9.90;;
15476;SDS011;7840;42.702;23.296;2022-12-18T04:26:01;15.33;;;10.40;;
15476;SDS011;7840;42.702;23.296;2022-12-18T04:28:28;12.47;;;9.47;;
15476;SDS011;7840;42.702;23.296;2022-12-18T04:30:56;12.37;;;10.20;;
15476;SDS011;7840;42.702;23.296;2022-12-18T04:33:22;12.30;;;10.17;;
15476;SDS011;7840;42.702;23.296;2022-12-18T04:35:51;14.07;;;10.27;;
15476;SDS011;7840;42.702;23.296;2022-12-18T04:38:19;13.90;;;10.90;;
15476;SDS011;7840;42.702;23.296;2022-12-18T04:40:46;14.00;;;10.87;;
15476;SDS011;7840;42.702;23.296;2022-12-18T04:43:14;14.10;;;10.80;;
15476;SDS011;7840;42.702;23.296;2022-12-18T04:45:41;13.90;;;11.03;;
15476;SDS011;7840;42.702;23.296;2022-12-18T04:48:09;20.33;;;12.77;;
15476;SDS011;7840;42.702;23.296;2022-12-18T04:50:36;14.43;;;12.07;;
15476;SDS011;7840;42.702;23.296;2022-12-18T04:53:05;13.27;;;10.47;;
15476;SDS011;7840;42.702;23.296;2022-12-18T04:55:34;15.40;;;12.67;;
15476;SDS011;7840;42.702;23.296;2022-12-18T04:58:33;15.17;;;11.07;;
15476;SDS011;7840;42.702;23.296;2022-12-18T05:03:34;15.77;;;12.17;;
15476;SDS011;7840;42.702;23.296;2022-12-18T05:06:03;16.77;;;12.43;;
15476;SDS011;7840;42.702;23.296;2022-12-18T05:08:32;16.63;;;13.23;;
15476;SDS011;7840;42.702;23.296;2022-12-18T05:11:01;17.63;;;12.57;;
15476;SDS011;7840;42.702;23.296;2022-12-18T05:13:30;16.90;;;12.70;;
15476;SDS011;7840;42.702;23.296;2022-12-18T05:16:27;16.70;;;13.93;;
15476;SDS011;7840;42.702;23.296;2022-12-18T05:18:56;16.23;;;12.20;;
15476;SDS011;7840;42.702;23.296;2022-12-18T05:21:24;17.17;;;12.83;;
15476;SDS011;7840;42.702;23.296;2022-12-18T05:23:53;17.03;;;13.53;;
15476;SDS011;7840;42.702;23.296;2022-12-18T05:26:21;16.47;;;12.77;;
15476;SDS011;7840;42.702;23.296;2022-12-18T05:28:49;14.93;;;11.97;;
15476;SDS011;7840;42.702;23.296;2022-12-18T05:31:17;15.93;;;12.73;;
15476;SDS011;7840;42.702;23.296;2022-12-18T05:33:44;16.80;;;13.77;;
15476;SDS011;7840;42.702;23.296;2022-12-18T05:36:14;16.20;;;13.17;;
15476;SDS011;7840;42.702;23.296;2022-12-18T05:38:42;19.27;;;14.70;;
15476;SDS011;7840;42.702;23.296;2022-12-18T05:41:11;16.70;;;13.00;;
15476;SDS011;7840;42.702;23.296;2022-12-18T05:43:39;15.87;;;12.20;;
15476;SDS011;7840;42.702;23.296;2022-12-18T05:46:08;16.93;;;13.00;;
15476;SDS011;7840;42.702;23.296;2022-12-18T05:48:38;17.63;;;13.17;;
15476;SDS011;7840;42.702;23.296;2022-12-18T05:51:07;17.43;;;14.57;;
15476;SDS011;7840;42.702;23.296;2022-12-18T05:53:36;16.67;;;12.37;;
15476;SDS011;7840;42.702;23.296;2022-12-18T05:56:22;17.80;;;13.00;;
15476;SDS011;7840;42.702;23.296;2022-12-18T05:58:51;16.07;;;13.10;;
15476;SDS011;7840;42.702;23.296;2022-12-18T06:11:39;16.27;;;12.83;;
15476;SDS011;7840;42.702;23.296;2022-12-18T06:14:06;16.90;;;14.40;;
15476;SDS011;7840;42.702;23.296;2022-12-18T06:16:34;18.60;;;12.83;;
15476;SDS011;7840;42.702;23.296;2022-12-18T06:19:03;16.23;;;12.07;;
15476;SDS011;7840;42.702;23.296;2022-12-18T06:21:34;20.23;;;14.80;;
15476;SDS011;7840;42.702;23.296;2022-12-18T06:24:28;17.90;;;12.77;;
15476;SDS011;7840;42.702;23.296;2022-12-18T06:30:32;18.73;;;14.10;;
15476;SDS011;7840;42.702;23.296;2022-12-18T06:33:01;18.83;;;14.53;;
15476;SDS011;7840;42.702;23.296;2022-12-18T06:35:50;17.57;;;13.73;;
15476;SDS011;7840;42.702;23.296;2022-12-18T06:38:29;17.63;;;12.83;;
15476;SDS011;7840;42.702;23.296;2022-12-18T06:41:00;16.33;;;13.13;;
15476;SDS011;7840;42.702;23.296;2022-12-18T06:43:35;15.90;;;12.33;;
15476;SDS011;7840;42.702;23.296;2022-12-18T06:46:08;16.93;;;13.00;;
15476;SDS011;7840;42.702;23.296;2022-12-18T06:48:37;16.60;;;13.67;;
15476;SDS011;7840;42.702;23.296;2022-12-18T06:51:05;22.07;;;15.53;;
15476;SDS011;7840;42.702;23.296;2022-12-18T06:53:36;16.43;;;12.67;;
15476;SDS011;7840;42.702;23.296;2022-12-18T06:56:05;15.40;;;11.60;;
15476;SDS011;7840;42.702;23.296;2022-12-18T06:58:50;15.80;;;12.37;;
15476;SDS011;7840;42.702;23.296;2022-12-18T07:01:27;14.03;;;11.03;;
15476;SDS011;7840;42.702;23.296;2022-12-18T07:03:55;15.87;;;13.43;;
15476;SDS011;7840;42.702;23.296;2022-12-18T07:06:24;16.97;;;13.03;;
15476;SDS011;7840;42.702;23.296;2022-12-18T07:08:52;14.93;;;11.53;;
15476;SDS011;7840;42.702;23.296;2022-12-18T07:11:20;19.50;;;13.87;;
15476;SDS011;7840;42.702;23.296;2022-12-18T07:13:51;17.93;;;15.23;;
15476;SDS011;7840;42.702;23.296;2022-12-18T07:16:25;18.17;;;15.10;;
15476;SDS011;7840;42.702;23.296;2022-12-18T07:19:21;22.00;;;15.10;;
15476;SDS011;7840;42.702;23.296;2022-12-18T07:21:49;20.10;;;15.47;;
15476;SDS011;7840;42.702;23.296;2022-12-18T07:24:51;21.17;;;15.30;;
15476;SDS011;7840;42.702;23.296;2022-12-18T07:27:24;21.77;;;15.50;;
15476;SDS011;7840;42.702;23.296;2022-12-18T07:29:54;22.53;;;17.87;;
15476;SDS011;7840;42.702;23.296;2022-12-18T07:32:42;22.57;;;16.53;;
15476;SDS011;7840;42.702;23.296;2022-12-18T07:35:09;21.83;;;15.83;;
15476;SDS011;7840;42.702;23.296;2022-12-18T07:37:57;23.57;;;17.07;;
15476;SDS011;7840;42.702;23.296;2022-12-18T07:40:25;23.40;;;16.77;;
15476;SDS011;7840;42.702;23.296;2022-12-18T07:42:55;22.37;;;17.23;;
15476;SDS011;7840;42.702;23.296;2022-12-18T07:45:23;23.23;;;20.47;;
15476;SDS011;7840;42.702;23.296;2022-12-18T07:48:18;24.57;;;17.57;;
15476;SDS011;7840;42.702;23.296;2022-12-18T07:50:48;20.97;;;16.53;;
15476;SDS011;7840;42.702;23.296;2022-12-18T07:53:19;23.33;;;17.57;;
15476;SDS011;7840;42.702;23.296;2022-12-18T07:55:47;21.33;;;17.23;;
15476;SDS011;7840;42.702;23.296;2022-12-18T07:58:14;21.03;;;15.47;;
15476;SDS011;7840;42.702;23.296;2022-12-18T08:00:48;22.30;;;16.53;;
15476;SDS011;7840;42.702;23.296;2022-12-18T08:03:17;23.03;;;17.43;;
15476;SDS011;7840;42.702;23.296;2022-12-18T08:05:45;22.73;;;16.30;;
15476;SDS011;7840;42.702;23.296;2022-12-18T08:08:13;23.90;;;18.57;;
15476;SDS011;7840;42.702;23.296;2022-12-18T08:10:41;24.20;;;19.07;;
15476;SDS011;7840;42.702;23.296;2022-12-18T08:13:11;23.10;;;17.77;;
15476;SDS011;7840;42.702;23.296;2022-12-18T08:15:42;22.53;;;15.93;;
15476;SDS011;7840;42.702;23.296;2022-12-18T08:18:13;22.77;;;17.53;;
15476;SDS011;7840;42.702;23.296;2022-12-18T08:20:43;22.40;;;16.70;;
15476;SDS011;7840;42.702;23.296;2022-12-18T08:23:14;22.53;;;17.33;;
15476;SDS011;7840;42.702;23.296;2022-12-18T08:25:57;25.13;;;17.83;;
15476;SDS011;7840;42.702;23.296;2022-12-18T08:28:25;23.00;;;17.43;;
15476;SDS011;7840;42.702;23.296;2022-12-18T08:30:53;20.93;;;16.23;;
15476;SDS011;7840;42.702;23.296;2022-12-18T08:33:21;21.03;;;14.63;;
15476;SDS011;7840;42.702;23.296;2022-12-18T08:35:53;20.37;;;15.50;;
15476;SDS011;7840;42.702;23.296;2022-12-18T08:38:36;20.07;;;16.00;;
15476;SDS011;7840;42.702;23.296;2022-12-18T08:41:05;21.70;;;15.03;;
15476;SDS011;7840;42.702;23.296;2022-12-18T08:43:33;20.83;;;15.07;;
15476;SDS011;7840;42.702;23.296;2022-12-18T08:46:38;25.03;;;16.83;;
15476;SDS011;7840;42.702;23.296;2022-12-18T08:49:10;23.23;;;16.33;;
15476;SDS011;7840;42.702;23.296;2022-12-18T08:51:40;20.83;;;14.77;;
15476;SDS011;7840;42.702;23.296;2022-12-18T08:54:24;20.33;;;16.30;;
15476;SDS011;7840;42.702;23.296;2022-12-18T08:56:58;19.17;;;14.23;;
15476;SDS011;7840;42.702;23.296;2022-12-18T08:59:28;17.87;;;13.30;;
15476;SDS011;7840;42.702;23.296;2022-12-18T09:02:18;18.60;;;13.87;;
15476;SDS011;7840;42.702;23.296;2022-12-18T09:04:57;19.57;;;14.10;;
15476;SDS011;7840;42.702;23.296;2022-12-18T09:07:29;18.70;;;15.13;;
15476;SDS011;7840;42.702;23.296;2022-12-18T09:09:57;18.57;;;16.57;;
15476;SDS011;7840;42.702;23.296;2022-12-18T09:12:31;21.37;;;14.30;;
15476;SDS011;7840;42.702;23.296;2022-12-18T09:15:01;18.57;;;13.67;;
15476;SDS011;7840;42.702;23.296;2022-12-18T09:17:33;18.53;;;13.53;;
15476;SDS011;7840;42.702;23.296;2022-12-18T09:20:04;18.93;;;13.57;;
15476;SDS011;7840;42.702;23.296;2022-12-18T09:22:49;19.47;;;14.47;;
15476;SDS011;7840;42.702;23.296;2022-12-18T09:25:21;17.20;;;13.57;;
15476;SDS011;7840;42.702;23.296;2022-12-18T09:27:48;18.77;;;12.77;;
15476;SDS011;7840;42.702;23.296;2022-12-18T09:30:21;17.73;;;14.00;;
15476;SDS011;7840;42.702;23.296;2022-12-18T09:33:06;18.87;;;13.80;;
15476;SDS011;7840;42.702;23.296;2022-12-18T09:35:35;17.93;;;15.07;;
15476;SDS011;7840;42.702;23.296;2022-12-18T09:38:05;17.37;;;13.20;;
15476;SDS011;7840;42.702;23.296;2022-12-18T09:40:35;19.17;;;13.50;;
15476;SDS011;7840;42.702;23.296;2022-12-18T09:43:09;18.37;;;13.23;;
15476;SDS011;7840;42.702;23.296;2022-12-18T09:45:44;20.73;;;14.30;;
15476;SDS011;7840;42.702;23.296;2022-12-18T09:48:16;19.07;;;14.00;;
15476;SDS011;7840;42.702;23.296;2022-12-18T09:50:58;16.87;;;14.00;;
15476;SDS011;7840;42.702;23.296;2022-12-18T09:53:37;18.47;;;13.07;;
15476;SDS011;7840;42.702;23.296;2022-12-18T09:56:21;17.43;;;11.33;;
15476;SDS011;7840;42.702;23.296;2022-12-18T09:58:57;18.07;;;12.93;;
15476;SDS011;7840;42.702;23.296;2022-12-18T10:01:26;16.27;;;11.80;;
15476;SDS011;7840;42.702;23.296;2022-12-18T10:03:58;16.63;;;12.07;;
15476;SDS011;7840;42.702;23.296;2022-12-18T10:06:26;17.43;;;11.80;;
15476;SDS011;7840;42.702;23.296;2022-12-18T10:09:09;18.00;;;11.80;;
15476;SDS011;7840;42.702;23.296;2022-12-18T10:11:48;16.83;;;12.03;;
15476;SDS011;7840;42.702;23.296;2022-12-18T10:14:30;17.53;;;12.70;;
15476;SDS011;7840;42.702;23.296;2022-12-18T10:17:11;18.67;;;13.37;;
15476;SDS011;7840;42.702;23.296;2022-12-18T10:19:49;18.70;;;13.10;;
15476;SDS011;7840;42.702;23.296;2022-12-18T10:22:22;16.70;;;12.37;;
15476;SDS011;7840;42.702;23.296;2022-12-18T10:25:01;19.30;;;13.77;;
15476;SDS011;7840;42.702;23.296;2022-12-18T10:27:33;17.37;;;13.00;;
15476;SDS011;7840;42.702;23.296;2022-12-18T10:30:01;18.33;;;12.37;;
15476;SDS011;7840;42.702;23.296;2022-12-18T10:32:47;18.03;;;12.53;;
15476;SDS011;7840;42.702;23.296;2022-12-18T10:35:16;18.07;;;13.57;;
15476;SDS011;7840;42.702;23.296;2022-12-18T10:40:49;17.53;;;13.30;;
15476;SDS011;7840;42.702;23.296;2022-12-18T10:43:20;19.43;;;14.57;;
15476;SDS011;7840;42.702;23.296;2022-12-18T10:46:00;18.80;;;13.73;;
15476;SDS011;7840;42.702;23.296;2022-12-18T10:48:40;17.93;;;13.00;;
15476;SDS011;7840;42.702;23.296;2022-12-18T10:51:19;17.47;;;12.93;;
15476;SDS011;7840;42.702;23.296;2022-12-18T10:53:56;17.77;;;14.50;;
15476;SDS011;7840;42.702;23.296;2022-12-18T10:56:38;18.10;;;13.13;;
15476;SDS011;7840;42.702;23.296;2022-12-18T10:59:09;19.87;;;14.10;;
15476;SDS011;7840;42.702;23.296;2022-12-18T11:04:50;17.33;;;12.77;;
15476;SDS011;7840;42.702;23.296;2022-12-18T11:07:21;15.47;;;11.87;;
15476;SDS011;7840;42.702;23.296;2022-12-18T11:09:59;16.50;;;12.17;;
15476;SDS011;7840;42.702;23.296;2022-12-18T11:12:43;13.10;;;10.73;;
15476;SDS011;7840;42.702;23.296;2022-12-18T11:15:14;19.63;;;14.37;;
15476;SDS011;7840;42.702;23.296;2022-12-18T11:18:14;17.57;;;12.80;;
15476;SDS011;7840;42.702;23.296;2022-12-18T11:20:52;18.40;;;13.60;;
15476;SDS011;7840;42.702;23.296;2022-12-18T11:23:22;22.50;;;14.40;;
15476;SDS011;7840;42.702;23.296;2022-12-18T11:26:03;17.57;;;12.80;;
15476;SDS011;7840;42.702;23.296;2022-12-18T11:28:45;16.87;;;13.80;;
15476;SDS011;7840;42.702;23.296;2022-12-18T11:31:20;15.87;;;11.87;;
15476;SDS011;7840;42.702;23.296;2022-12-18T11:34:22;15.43;;;12.43;;
15476;SDS011;7840;42.702;23.296;2022-12-18T11:37:08;19.30;;;13.47;;
15476;SDS011;7840;42.702;23.296;2022-12-18T11:39:52;18.13;;;12.97;;
15476;SDS011;7840;42.702;23.296;2022-12-18T11:42:27;17.20;;;11.33;;
15476;SDS011;7840;42.702;23.296;2022-12-18T11:45:14;14.60;;;11.20;;
15476;SDS011;7840;42.702;23.296;2022-12-18T11:47:55;15.97;;;12.17;;
15476;SDS011;7840;42.702;23.296;2022-12-18T11:50:32;20.37;;;12.47;;
15476;SDS011;7840;42.702;23.296;2022-12-18T11:53:10;14.70;;;11.53;;
15476;SDS011;7840;42.702;23.296;2022-12-18T11:55:43;17.83;;;12.90;;
15476;SDS011;7840;42.702;23.296;2022-12-18T12:01:21;20.83;;;14.50;;
15476;SDS011;7840;42.702;23.296;2022-12-18T12:04:03;18.83;;;13.67;;
15476;SDS011;7840;42.702;23.296;2022-12-18T12:06:48;20.87;;;14.93;;
15476;SDS011;7840;42.702;23.296;2022-12-18T12:09:26;22.17;;;15.27;;
15476;SDS011;7840;42.702;23.296;2022-12-18T12:12:08;23.97;;;14.90;;
15476;SDS011;7840;42.702;23.296;2022-12-18T12:14:54;20.33;;;13.73;;
15476;SDS011;7840;42.702;23.296;2022-12-18T12:17:33;16.20;;;13.33;;
15476;SDS011;7840;42.702;23.296;2022-12-18T12:20:07;16.70;;;13.90;;
15476;SDS011;7840;42.702;23.296;2022-12-18T12:22:44;20.73;;;13.87;;
15476;SDS011;7840;42.702;23.296;2022-12-18T12:25:33;19.77;;;13.77;;
15476;SDS011;7840;42.702;23.296;2022-12-18T12:28:12;20.83;;;15.07;;
15476;SDS011;7840;42.702;23.296;2022-12-18T12:30:54;17.83;;;13.87;;
15476;SDS011;7840;42.702;23.296;2022-12-18T12:33:47;20.90;;;14.67;;
15476;SDS011;7840;42.702;23.296;2022-12-18T12:36:26;16.93;;;12.73;;
15476;SDS011;7840;42.702;23.296;2022-12-18T12:39:03;22.23;;;13.47;;
15476;SDS011;7840;42.702;23.296;2022-12-18T12:41:51;18.07;;;14.53;;
15476;SDS011;7840;42.702;23.296;2022-12-18T12:44:40;23.07;;;15.80;;
15476;SDS011;7840;42.702;23.296;2022-12-18T12:47:15;19.50;;;13.73;;
15476;SDS011;7840;42.702;23.296;2022-12-18T12:49:56;18.10;;;13.97;;
15476;SDS011;7840;42.702;23.296;2022-12-18T12:52:49;21.60;;;14.23;;
15476;SDS011;7840;42.702;23.296;2022-12-18T12:55:20;19.43;;;13.90;;
15476;SDS011;7840;42.702;23.296;2022-12-18T12:57:52;16.33;;;12.77;;
15476;SDS011;7840;42.702;23.296;2022-12-18T13:00:44;17.83;;;13.27;;
15476;SDS011;7840;42.702;23.296;2022-12-18T13:03:23;18.03;;;12.10;;
15476;SDS011;7840;42.702;23.296;2022-12-18T13:06:04;16.77;;;12.90;;
15476;SDS011;7840;42.702;23.296;2022-12-18T13:08:53;16.70;;;13.53;;
15476;SDS011;7840;42.702;23.296;2022-12-18T13:11:30;18.53;;;13.00;;
15476;SDS011;7840;42.702;23.296;2022-12-18T13:14:20;17.83;;;12.97;;
15476;SDS011;7840;42.702;23.296;2022-12-18T13:16:50;15.97;;;13.30;;
15476;SDS011;7840;42.702;23.296;2022-12-18T13:19:21;20.20;;;14.37;;
15476;SDS011;7840;42.702;23.296;2022-12-18T13:21:56;19.57;;;14.80;;
15476;SDS011;7840;42.702;23.296;2022-12-18T13:24:37;18.03;;;12.87;;
15476;SDS011;7840;42.702;23.296;2022-12-18T13:27:14;20.47;;;14.77;;
15476;SDS011;7840;42.702;23.296;2022-12-18T13:36:30;16.63;;;12.80;;
15476;SDS011;7840;42.702;23.296;2022-12-18T13:45:35;18.50;;;14.47;;
15476;SDS011;7840;42.702;23.296;2022-12-18T13:48:13;20.13;;;14.77;;
15476;SDS011;7840;42.702;23.296;2022-12-18T13:51:00;21.03;;;15.23;;
15476;SDS011;7840;42.702;23.296;2022-12-18T13:53:32;20.13;;;15.93;;
15476;SDS011;7840;42.702;23.296;2022-12-18T13:56:08;19.07;;;14.80;;
15476;SDS011;7840;42.702;23.296;2022-12-18T13:58:44;17.07;;;12.40;;
15476;SDS011;7840;42.702;23.296;2022-12-18T14:01:21;17.57;;;14.03;;
15476;SDS011;7840;42.702;23.296;2022-12-18T14:03:49;16.27;;;13.10;;
15476;SDS011;7840;42.702;23.296;2022-12-18T14:06:17;16.60;;;11.47;;
15476;SDS011;7840;42.702;23.296;2022-12-18T14:08:44;19.57;;;12.07;;
15476;SDS011;7840;42.702;23.296;2022-12-18T14:11:19;15.47;;;12.07;;
15476;SDS011;7840;42.702;23.296;2022-12-18T14:13:49;14.37;;;10.90;;
15476;SDS011;7840;42.702;23.296;2022-12-18T14:16:16;16.73;;;11.30;;
15476;SDS011;7840;42.702;23.296;2022-12-18T14:18:45;15.27;;;11.73;;
15476;SDS011;7840;42.702;23.296;2022-12-18T14:21:25;17.23;;;13.13;;
15476;SDS011;7840;42.702;23.296;2022-12-18T14:24:04;15.17;;;12.00;;
15476;SDS011;7840;42.702;23.296;2022-12-18T14:26:40;17.30;;;12.43;;
15476;SDS011;7840;42.702;23.296;2022-12-18T14:29:18;20.17;;;12.80;;
15476;SDS011;7840;42.702;23.296;2022-12-18T14:32:06;15.93;;;11.80;;
15476;SDS011;7840;42.702;23.296;2022-12-18T14:34:37;16.20;;;11.73;;
15476;SDS011;7840;42.702;23.296;2022-12-18T14:37:23;15.77;;;11.80;;
15476;SDS011;7840;42.702;23.296;2022-12-18T14:39:55;16.83;;;11.90;;
15476;SDS011;7840;42.702;23.296;2022-12-18T14:42:26;15.83;;;11.20;;
15476;SDS011;7840;42.702;23.296;2022-12-18T14:48:05;15.67;;;10.70;;
15476;SDS011;7840;42.702;23.296;2022-12-18T14:50:55;14.50;;;10.37;;
15476;SDS011;7840;42.702;23.296;2022-12-18T14:53:35;13.63;;;11.10;;
15476;SDS011;7840;42.702;23.296;2022-12-18T14:56:12;16.47;;;10.43;;
15476;SDS011;7840;42.702;23.296;2022-12-18T14:58:49;14.90;;;11.07;;
15476;SDS011;7840;42.702;23.296;2022-12-18T15:01:23;15.50;;;11.43;;
15476;SDS011;7840;42.702;23.296;2022-12-18T15:04:23;20.40;;;11.63;;
15476;SDS011;7840;42.702;23.296;2022-12-18T15:07:04;16.63;;;10.83;;
15476;SDS011;7840;42.702;23.296;2022-12-18T15:09:36;13.80;;;10.40;;
15476;SDS011;7840;42.702;23.296;2022-12-18T15:12:04;14.07;;;10.57;;
15476;SDS011;7840;42.702;23.296;2022-12-18T15:14:47;12.97;;;10.73;;
15476;SDS011;7840;42.702;23.296;2022-12-18T15:17:16;14.70;;;9.87;;
15476;SDS011;7840;42.702;23.296;2022-12-18T15:19:46;15.03;;;9.97;;
15476;SDS011;7840;42.702;23.296;2022-12-18T15:22:20;14.53;;;10.63;;
15476;SDS011;7840;42.702;23.296;2022-12-18T15:25:01;16.17;;;11.17;;
15476;SDS011;7840;42.702;23.296;2022-12-18T15:27:48;14.47;;;10.90;;
15476;SDS011;7840;42.702;23.296;2022-12-18T15:30:24;14.33;;;10.87;;
15476;SDS011;7840;42.702;23.296;2022-12-18T15:35:43;16.70;;;12.50;;
15476;SDS011;7840;42.702;23.296;2022-12-18T15:38:24;18.17;;;10.83;;
15476;SDS011;7840;42.702;23.296;2022-12-18T15:40:52;18.83;;;13.57;;
15476;SDS011;7840;42.702;23.296;2022-12-18T15:43:23;15.20;;;11.97;;
15476;SDS011;7840;42.702;23.296;2022-12-18T15:46:00;19.23;;;13.63;;
15476;SDS011;7840;42.702;23.296;2022-12-18T15:49:07;15.70;;;12.03;;
15476;SDS011;7840;42.702;23.296;2022-12-18T15:51:52;16.27;;;12.73;;
15476;SDS011;7840;42.702;23.296;2022-12-18T15:54:56;18.47;;;13.17;;
15476;SDS011;7840;42.702;23.296;2022-12-18T15:57:49;17.97;;;12.17;;
15476;SDS011;7840;42.702;23.296;2022-12-18T16:00:17;15.03;;;11.43;;
15476;SDS011;7840;42.702;23.296;2022-12-18T16:02:50;17.73;;;13.27;;